Timeline UpdatesTrip UpdatesNews PostsPvt PostsTravel TipsAdmin PostsConv PostsFollowed PostsChat RequestsBlog PostsPNR Posts

Disclaimer
Search
 
 
Sat Apr 19, 2014 13:29:11 ISTHomeTrainsΣChainsAtlasPNRForumGalleryNewsFAQTripsMembersLoginFeedback
No Recent News for this Train
Other Trains in the News **new
Latest...
Train No.16031 / 16032 Chennai Central – Jammutawi – Chennai Central Tri-weekly Express trains will be temporarily augmented by 1 Sleeper Class coach from 02.02.2014 to 13.03.2014 ex. Chennai Central and from 04.02.2014 to 15.03.2014 ex. Jammutawi.
Wed Nov 27, 2013 (07:28PM)
⇐ Return Journey: Train# 16032

16031/Andaman Express

Jan 01 2014 (10:23PM)
Change Departure Station:
Change Arrival Station:
Post a Train Travel TipPost a Train Travel Tip **new
Post a Comment/Question/Picture/VideoPost a Comment/Question/Picture/Video
Inaugural Run
Sun May 01, 1988
Pantry/Catering
✕ NO Pantry Car
✕ NO Catering
RSA - Rake Sharing
16031/16032/16093/16094/12755/12756 (renumbered 22613/22614) has RSA.
Rake/Coach Composition
LOCO-HCPV-HCPV-HCPV-HCPV-SLR-UR-UR-UR-S7-S6-S5-S4-S3-S2-S1-B1-UR-UR-SLR
Loco
WAP 4 ED MAS to NDLS TKD WDM3A/ WDP3A NDLS...
Read more...
to JAT
News    PNR    Forum    Time-Table    Availability    Fare Chart    Map    Arr/Dep History    Trips    Gallery    ΣChains    X/O    Timeline    
Travel Time: 33h 5m    42 halts    Distance: 1580 km    Avg Speed: 47 km/hr
Type: Mail/Express
Zone: SR/Southern
Departs @ 04:05 (Avg 34m late)
Platform# ???
 M  TF 
Pandhurna/PAR 
Arrives @ 13:10 +1 night (Avg 26m late)
Platform# 3
  T  FS
Jammu Tawi/JAT 

42 halts. 238 intermediate Stations between Pandhurna and Jammu Tawi

Show ALL intermediate Stations  Show Old Time-Table

#CodeStation NameX/OArrivesAvgDepartsAvgHaltPFDay#KmSpeedElevZoneAddress
1MASChennai Central (12)  -05:15+421-1218.5679mSRChennai 600003, Tamil Nadu
2SPESullurupeta (3)  06:29+1406:30+151m11-1136.1689mSRSullurupeta, Andhra Pradesh
3NYPNayadupeta (3)X  06:54+1406:55+151m11-1108.82133mSRNayudupeta, Andhra Pradesh
4GDRGudur Junction (3)  08:15-308:17+02m31-1081.19219mSCRGudur, Andhra Pradesh
5NLRNellore (4)  08:42+1008:43+111m21-1042.77921mSCRNellore, Andhra Pradesh
6BTTRBitragunta (2)  09:09+1309:10+161m11-1008.35815mSCRBitragunta, Andhra Pradesh
7KVZKavali (4)  09:27+1709:28+171m31-991.99121mSCRKavali, Andhra Pradesh
8SKMSingarayakonda (3)X  09:53+1809:54+181m11-954.15526mSCRSingarayakonda, Andhra Pradesh
9OGLOngole (3)  10:25+1510:26+171m11-925.98712mSCROngole ph.no . 08592-280202, Andhra Pradesh
10CLXChirala (4)  11:00+2411:01+251m--1-876.5758mSCRChirala, Andhra Pradesh
11BPPBapatla (3)  11:13+2911:14+291m--1-861.55410mSCRBapatla, Andhra Pradesh
12NDONidubrolu (3)X  11:37+2311:38+301m--1-840.9329mSCRNidubrolu, Andhra Pradesh
13TELTenali Junction (5)  12:19+1812:20+221m--1-818.95016mSCRTel: 08644-227834, Andhra Pradesh
14NGNTNew Guntur (1)  12:50+1312:52+132m11-793.91830mSCRGuntur City, Andhra Pradesh
15BZAVijayawada Junction (10)X  14:30+414:50+620m61-763.86424mSCRVijayawada 520001, Andhra Pradesh
16MDRMadhira (2)  15:42+3015:43+311m21-708.212861mSCRK.Ponnavaram, Andhra Pradesh
17KMTKhammam (2)X  16:04+4616:06+462m21-663.446118mSCRKhammam 507001, Andhra Pradesh
18DKJDornakal Junction (3)  16:36+4216:37+431m11-640.481153mSCRWarangal District, Andhra Pradesh
19MABDMahbubabad (2)  16:55+4916:56+501m21-616.090200mSCRMahbubabad, Andhra Pradesh
20KDMKesamudram (2)X  17:06+5417:07+541m21-601.156223mSCRKesamudram. Ph : 08719 - 250360, Andhra Pradesh
21WLWarangal (3)  17:55+4918:00+505m21-555.998271mSCRWarangal., Andhra Pradesh
22JMKTJamikunta (2)  18:27+1:1318:28+1:141m11-511.791236mSCRJammikunta, Andhra Pradesh
23PDPLPeddapalli Junction (2)  18:54+1:2418:55+1:251m11-472.381228mSCRPeddapalli, Andhra Pradesh
24RDMRamagundam (3)  19:08+1:3019:09+1:301m11-454.775170mSCRKarimnagar Dist. Ph : 08728 - 255237, Andhra Pradesh
25MCIManchiryal (3)X  19:20+1:3219:21+1:331m11-441.040159mSCRMancherial. Ph : 08736 - 254445, Andhra Pradesh
26BPABellampalli (3)  19:51+1:2819:52+1:281m11-421.1105205mSCRBelampalli Tel:.08735 223298, Andhra Pradesh
27SKZRSirpur Kaghaznagar (3)  20:14+5820:15+581m11-382.729181mSCRKaghaznagar, Andhra Pradesh
28BPQBalharshah Junction (5)XO  22:40+2622:50+2710m41-312.946188mCRBallarpur. Ph : 07172 - 240341, Maharashtra
29CDChandrapur Maharashtra  23:08+3123:09+331m--1-299.168194mCRChandrapur 442401, Maharashtra
30MJRIMajri Junction (3)X  23:39+4523:40+491m--1-265.262198mCRDist. Chandrapur, Maharashtra
31WRRWaroraO  23:52+5123:53+531m--1-252.876214mCRWarora, Maharashtra
32HGTHinganghatO  00:24+5500:25+561m--2-213.745228mCRHinganghat, Maharashtra
33SEGMSewagram Junction (5)  01:09+4301:10+451m--2-180.654264mCRWardha, Maharashtra
34NGPNagpur Junction (9)  02:35+2702:45+2810m12-104.379314mCRNagpur 440001, Maharashtra
35PAR»Pandhurna (2)»  04:04+3404:05+341m--20.056481mCRDistt: Chhindwara, Madhya Pradesh
36MTYMultai (2)X  04:49+3804:50+391m--240.855762mCRMultai, Madhya Pradesh
37AMLAAmla Junction (5)X  05:15+3705:17+372m--263.681733mCRAmla Distt. Betul, Madhya Pradesh
38BZUBetul (3)X  05:34+4005:35+421m--286.555644mCRBetul, Madhya Pradesh
39GDYAGhoradongri (3)X  06:14+3706:15+381m--2122.438410mCRBetul, Madhya Pradesh
40ETItarsi Junction (7)X  08:05+1508:10+245m--2192.852329mWCRItarsi 461111, Madhya Pradesh
41BPLBhopal Junction (6)O  09:55+3710:00+405m22284.585497mWCRBhopal, Madhya Pradesh
42BINABina Junction (5)O  12:30+912:35+105m32423.185414mWCRJn Pt - KATNI/GUNA/ BPL/JHS, Madhya Pradesh
43BABBabina (3)X  14:05+2314:07+242m22550.840285mNCRBabina, Uttar Pradesh
44JHSJhansi Junction (7)X  14:45+1914:53+218m--2576.371259mNCRJhansi, Uttar Pradesh
45GWLGwalior Junction (4)  16:15+4116:20+415m32674.093214mNCRGwalior, Madhya Pradesh
46MRAMorena (3)X  16:45+4516:47+452m22712.649176mNCRMorena, Madhya Pradesh
47AGCAgra Cantt. (6)X  18:25+2818:35+3910m22792.040174mNCRAgra, Uttar Pradesh
48MTJMathura Junction (10)  19:55+2920:00+295m22845.768179mNCRMathura, Uttar Pradesh
49FDBFaridabad (4)X  21:40+2221:41+231m22958.956206mNRFaridabad, Haryana
50TKDTuglakabad (4)  21:53+2521:55+262m--2970.045213mNRNear Tughlakabad Metro Station, Delhi NCT
51OKAOkhla (4)X  22:03+3022:05+292m--2976.015221mNRIshwar Nagar Mathura Road, Delhi NCT
52NZMDelhi Hazrat Nizamuddin (7)XO  22:20+2622:50+1830m32979.718209mNRNizamuddin East/Sarai KaleKhan Bus Terminal, Delhi NCT
53NDLSNew Delhi (16)  23:15+1400:10+1455m52987.020215mNRAjmeri Gate/Paharganj, Delhi NCT
54SSBShakur Basti  00:43+1700:44+181m--3997.970216mNRPitampura, Delhi NCT
55BGZBahadurgarh  01:01+2101:02+211m--31017.873220mNRBahadurgarh, Haryana
56ROKRohtak Junction (3)  01:35+2101:40+195m--31058.162220mNRRohtak, Haryana
57JINDJind Junction (3)  02:35+1402:40+135m--31115.278222mNR126102., Haryana
58NRWNarwana Junction (4)  03:06+1703:07+181m--31149.173235mNRWay to Narwana, Haryana
59TUNTohana (2)X  03:28+1503:29+171m--31174.620232mNRTohana, Haryana
60JHLJakhal Junction  04:05+804:10+105m--31186.885225mNRJakhal, Haryana
61LHALehra Gaga (1)  04:22+2404:24+242m131203.871227mNRSangrur, Punjab
62SFMSunam (1)  04:42+2604:44+272m131225.164235mNRSunam, Punjab
63SAGSangrur (2)X  04:56+2804:58+302m231237.830239mNRSangrur, Punjab
64DUIDhuri Junction (4)  05:30+2405:35+245m--31253.978248mNRDhuri, Punjab
65METMalerkotla (2)  05:48+2405:50+232m231270.766248mNRMalerkotla., Punjab
66AHHAhmadgarh (1)X  06:08+2106:09+221m131290.527256mNRAhmedgarh, Punjab
67QRPKila Raipur (1)  06:26+1706:28+172m131298.248262mNRDelhon Pakhowal Rd, Punjab
68LDHLudhiana Junction (7)X  06:50+3507:00+5610m631315.934246mNRLudhiana 141001, Punjab
69PHRPhillaur Junction (3)X  07:23+4907:25+492m231329.075246mNRPhillaur, Punjab
70PGWPhagwara Junction (3)X  07:43+5107:45+512m231351.665245mNRPhagwara, Punjab
71JRCJalandhar Cantt. Junction (3)  08:00+5508:05+575m331367.963239mNRNear Rama Mandi, Punjab
72TDOTanda Urmar (3)  08:45+5208:47+532m131410.266239mNRUrmar Tanda, Punjab
73DZADasuya (2)  09:01+5309:03+532m231425.556251mNRDasuya distt. hoshiarpur, Punjab
74MEXMukerian (3)X  09:19+5709:21+1:012m231440.635257mNRMukerian distt. hosiharpur, Punjab
75PTKCPathankot Cantt (3)X  10:30+4410:35+515m231480.432328mNRPathankot By Pass Ph:0186-2251594, Punjab
76KTHUKathua (2)X  11:19+4011:21+402m131503.562396mNRdistt. kathua, Jammu and Kashmir
77SMBXSamba (2)  12:03+4112:05+432m231547.230365mNRDist. Samba, Jammu and Kashmir
78JAT•Jammu Tawi (3)•  13:10+26-331579.8-337mNRJammu 180002, Jammu and Kashmir
Scroll to Top
Scroll to Bottom